createdAt,value
2022-08-24T00:02:11.874Z,4.57
2022-08-24T00:04:59.433Z,3.90
2022-08-24T00:07:47.343Z,4.35
2022-08-24T00:10:34.233Z,4.38
2022-08-24T00:13:21.318Z,4.05
2022-08-24T00:16:11.789Z,4.32
2022-08-24T00:19:00.725Z,4.00
2022-08-24T00:21:47.958Z,4.28
2022-08-24T00:24:35.168Z,4.15
2022-08-24T00:27:21.918Z,4.72
2022-08-24T00:30:15.537Z,4.88
2022-08-24T00:35:51.301Z,4.50
2022-08-24T00:38:38.293Z,4.50
2022-08-24T00:41:25.569Z,4.28
2022-08-24T00:44:15.582Z,4.35
2022-08-24T00:47:07.961Z,4.40
2022-08-24T00:50:00.822Z,3.67
2022-08-24T00:52:52.033Z,4.40
2022-08-24T00:55:43.592Z,3.67
2022-08-24T00:58:36.948Z,3.90
2022-08-24T01:01:24.779Z,4.68
2022-08-24T01:04:19.643Z,3.80
2022-08-24T01:07:07.933Z,4.32
2022-08-24T01:09:58.004Z,4.13
2022-08-24T01:13:00.068Z,3.88
2022-08-24T01:15:51.305Z,3.80
2022-08-24T01:18:53.348Z,4.00
2022-08-24T01:21:48.320Z,3.83
2022-08-24T01:24:38.231Z,4.57
2022-08-24T01:27:26.383Z,4.75
2022-08-24T01:30:17.390Z,5.22
2022-08-24T01:33:07.250Z,5.05
2022-08-24T01:36:01.153Z,4.43
2022-08-24T01:38:50.752Z,4.00
2022-08-24T01:41:39.355Z,4.28
2022-08-24T01:44:29.320Z,3.90
2022-08-24T01:47:18.029Z,4.35
2022-08-24T01:50:06.891Z,3.88
2022-08-24T01:53:04.884Z,3.75
2022-08-24T01:55:53.646Z,4.20
2022-08-24T01:58:47.544Z,4.45
2022-08-24T02:01:39.429Z,4.38
2022-08-24T02:04:26.666Z,3.85
2022-08-24T02:07:15.697Z,4.13
2022-08-24T02:10:02.869Z,3.80
2022-08-24T02:12:58.206Z,4.28
2022-08-24T02:15:48.070Z,3.85
2022-08-24T02:18:35.914Z,3.95
2022-08-24T02:21:22.959Z,3.88
2022-08-24T02:24:13.503Z,4.05
2022-08-24T02:27:01.282Z,3.83
2022-08-24T02:29:48.461Z,4.40
2022-08-24T02:32:37.093Z,4.25
2022-08-24T02:35:24.655Z,4.13
2022-08-24T02:38:11.741Z,4.15
2022-08-24T02:40:59.997Z,4.13
2022-08-24T02:43:47.124Z,3.92
2022-08-24T02:46:34.861Z,3.70
2022-08-24T02:49:24.466Z,3.50
2022-08-24T02:52:12.313Z,3.88
2022-08-24T02:54:59.625Z,3.95
2022-08-24T02:57:47.866Z,4.00
2022-08-24T03:00:36.307Z,4.03
2022-08-24T03:03:23.550Z,3.55
2022-08-24T03:06:12.390Z,4.20
2022-08-24T03:08:59.483Z,4.90
2022-08-24T03:11:46.550Z,4.43
2022-08-24T03:14:35.633Z,4.95
2022-08-24T03:17:24.122Z,4.00
2022-08-24T03:20:14.808Z,4.15
2022-08-24T03:23:04.428Z,4.15
2022-08-24T03:25:53.332Z,4.13
2022-08-24T03:28:40.794Z,5.00
2022-08-24T03:31:28.365Z,4.93
2022-08-24T03:34:16.456Z,3.97
2022-08-24T03:37:03.436Z,4.10
2022-08-24T03:39:51.725Z,4.25
2022-08-24T03:42:40.218Z,4.75
2022-08-24T03:45:29.684Z,4.22
2022-08-24T03:48:16.787Z,4.20
2022-08-24T03:51:04.465Z,4.85
2022-08-24T03:53:55.869Z,4.47
2022-08-24T03:56:46.856Z,4.57
2022-08-24T03:59:41.230Z,4.75
2022-08-24T04:02:33.740Z,4.85
2022-08-24T04:05:20.710Z,4.50
2022-08-24T04:08:08.463Z,4.43
2022-08-24T04:10:57.065Z,4.70
2022-08-24T04:13:46.892Z,5.15
2022-08-24T04:16:37.335Z,4.50
2022-08-24T04:19:32.460Z,4.70
2022-08-24T04:22:19.854Z,4.78
2022-08-24T04:25:09.373Z,4.47
2022-08-24T04:27:58.008Z,4.68
2022-08-24T04:30:50.308Z,5.30
2022-08-24T04:33:50.007Z,4.55
2022-08-24T04:36:42.991Z,5.13
2022-08-24T04:39:34.564Z,5.03
2022-08-24T04:42:33.631Z,5.38
2022-08-24T04:45:21.219Z,5.35
2022-08-24T04:48:09.821Z,5.70
2022-08-24T04:51:03.001Z,5.22
2022-08-24T04:53:51.445Z,5.47
2022-08-24T04:56:38.370Z,5.60
2022-08-24T04:59:25.564Z,5.65
2022-08-24T05:02:13.693Z,5.45
2022-08-24T05:05:02.196Z,6.15
2022-08-24T05:07:51.465Z,5.90
2022-08-24T05:10:43.157Z,5.88
2022-08-24T05:13:30.109Z,6.32
2022-08-24T05:16:19.238Z,5.55
2022-08-24T05:19:08.291Z,5.53
2022-08-24T05:21:56.954Z,5.70
2022-08-24T05:24:44.760Z,5.38
2022-08-24T05:27:34.615Z,5.63
2022-08-24T05:30:25.368Z,4.82
2022-08-24T05:33:12.988Z,5.22
2022-08-24T05:35:59.939Z,4.43
2022-08-24T05:38:49.153Z,4.50
2022-08-24T05:41:36.363Z,4.35
2022-08-24T05:44:31.643Z,5.05
2022-08-24T05:47:23.173Z,4.38
2022-08-24T05:50:11.731Z,4.03
2022-08-24T05:52:58.817Z,4.30
2022-08-24T05:55:47.423Z,4.80
2022-08-24T05:58:34.733Z,3.83
2022-08-24T06:01:26.290Z,4.00
2022-08-24T06:04:14.025Z,5.10
2022-08-24T06:07:01.644Z,3.92
2022-08-24T06:09:50.286Z,4.10
2022-08-24T06:12:38.742Z,4.07
2022-08-24T06:15:25.909Z,3.72
2022-08-24T06:18:12.935Z,4.35
2022-08-24T06:21:00.188Z,4.20
2022-08-24T06:23:47.697Z,4.50
2022-08-24T06:26:50.513Z,4.28
2022-08-24T06:29:43.031Z,3.80
2022-08-24T06:32:47.089Z,3.25
2022-08-24T06:35:46.986Z,3.40
2022-08-24T06:38:35.443Z,3.30
2022-08-24T06:41:25.855Z,3.20
2022-08-24T06:44:12.839Z,2.90
2022-08-24T06:47:13.454Z,3.20
2022-08-24T06:50:00.784Z,3.20
2022-08-24T06:52:49.076Z,3.10
2022-08-24T06:55:36.294Z,3.03
2022-08-24T06:58:24.605Z,2.95
2022-08-24T07:01:13.612Z,2.33
2022-08-24T07:04:02.646Z,2.58
2022-08-24T07:07:09.897Z,2.78
2022-08-24T07:09:56.860Z,2.67
2022-08-24T07:12:43.918Z,3.05
2022-08-24T07:15:35.709Z,3.50
2022-08-24T07:18:29.993Z,3.00
2022-08-24T07:21:20.446Z,2.95
2022-08-24T07:24:10.868Z,2.90
2022-08-24T07:26:59.694Z,2.35
2022-08-24T07:29:56.259Z,2.75
2022-08-24T07:32:48.103Z,2.47
2022-08-24T07:35:36.526Z,2.60
2022-08-24T07:38:24.859Z,2.58
2022-08-24T07:41:40.465Z,2.53
2022-08-24T07:44:20.785Z,2.50
2022-08-24T07:47:36.420Z,2.50
2022-08-24T07:50:20.810Z,2.53
2022-08-24T07:53:11.041Z,2.47
2022-08-24T07:56:03.342Z,2.30
2022-08-24T07:58:54.351Z,2.20
2022-08-24T08:01:43.448Z,2.42
2022-08-24T08:04:32.720Z,2.60
2022-08-24T08:07:20.712Z,2.50
2022-08-24T08:10:11.405Z,2.38
2022-08-24T08:13:00.067Z,2.70
2022-08-24T08:15:48.133Z,2.45
2022-08-24T08:18:36.869Z,2.10
2022-08-24T08:21:42.703Z,2.10
2022-08-24T08:24:28.646Z,2.45
2022-08-24T08:27:15.629Z,2.35
2022-08-24T08:30:04.227Z,2.33
2022-08-24T08:32:51.551Z,2.17
2022-08-24T08:35:38.751Z,2.40
2022-08-24T08:38:26.070Z,2.70
2022-08-24T08:41:43.023Z,2.63
2022-08-24T08:44:46.019Z,2.45
2022-08-24T08:47:54.142Z,2.40
2022-08-24T08:51:12.272Z,2.00
2022-08-24T08:54:15.626Z,2.42
2022-08-24T08:57:20.132Z,2.17
2022-08-24T09:00:15.829Z,3.10
2022-08-24T09:03:29.871Z,1.73
2022-08-24T09:06:50.519Z,2.47
2022-08-24T09:09:52.499Z,2.55
2022-08-24T09:12:55.027Z,2.50
2022-08-24T09:16:03.710Z,2.40
2022-08-24T09:19:15.622Z,2.60
2022-08-24T09:22:12.963Z,2.00
2022-08-24T09:25:11.491Z,2.47
2022-08-24T09:28:16.770Z,2.15
2022-08-24T09:31:25.339Z,2.45
2022-08-24T09:34:27.107Z,2.40
2022-08-24T09:37:31.882Z,2.70
2022-08-24T09:40:41.046Z,2.28
2022-08-24T09:43:50.214Z,2.20
2022-08-24T09:47:06.948Z,2.45
2022-08-24T09:50:22.645Z,2.40
2022-08-24T09:53:09.521Z,2.17
2022-08-24T09:56:12.117Z,2.25
2022-08-24T09:59:14.590Z,1.95
2022-08-24T10:02:20.479Z,2.50
2022-08-24T10:05:53.260Z,2.25
2022-08-24T10:08:53.441Z,2.50
2022-08-24T10:11:52.773Z,2.20
2022-08-24T10:14:51.772Z,2.63
2022-08-24T10:17:52.097Z,2.15
2022-08-24T10:20:57.301Z,2.20
2022-08-24T10:24:05.757Z,2.00
2022-08-24T10:27:18.728Z,2.33
2022-08-24T10:30:28.649Z,2.60
2022-08-24T10:33:23.152Z,2.60
2022-08-24T10:36:30.691Z,5.03
2022-08-24T10:39:43.539Z,2.30
2022-08-24T10:43:08.647Z,2.72
2022-08-24T10:46:21.273Z,2.40
2022-08-24T10:49:07.013Z,2.30
2022-08-24T10:52:13.957Z,2.60
2022-08-24T10:55:14.878Z,2.00
2022-08-24T10:58:20.838Z,2.30
2022-08-24T11:01:19.389Z,2.50
2022-08-24T11:04:11.068Z,2.08
2022-08-24T11:07:10.003Z,2.50
2022-08-24T11:10:00.331Z,2.70
2022-08-24T11:12:48.511Z,2.58
2022-08-24T11:15:49.833Z,2.83
2022-08-24T11:18:49.938Z,2.55
2022-08-24T11:21:42.282Z,2.35
2022-08-24T11:24:41.996Z,2.97
2022-08-24T11:27:36.296Z,2.58
2022-08-24T11:30:28.042Z,2.70
2022-08-24T11:33:28.679Z,2.35
2022-08-24T11:36:21.129Z,2.10
2022-08-24T11:39:17.731Z,2.75
2022-08-24T11:42:19.689Z,2.65
2022-08-24T11:45:21.180Z,2.50
2022-08-24T11:48:23.797Z,2.08
2022-08-24T11:51:23.112Z,2.22
2022-08-24T11:54:22.339Z,2.25
2022-08-24T11:57:18.236Z,3.20
2022-08-24T12:00:10.092Z,2.42
2022-08-24T12:03:07.110Z,2.63
2022-08-24T12:06:02.394Z,2.30
2022-08-24T12:08:55.595Z,2.45
2022-08-24T12:11:50.021Z,2.10
2022-08-24T12:14:45.395Z,1.95
2022-08-24T12:17:39.210Z,2.15
2022-08-24T12:20:33.036Z,2.20
2022-08-24T12:23:28.957Z,2.60
2022-08-24T12:26:26.175Z,2.10
2022-08-24T12:29:19.441Z,1.92
2022-08-24T12:32:13.401Z,2.30
2022-08-24T12:35:06.499Z,1.90
2022-08-24T12:37:59.975Z,2.35
2022-08-24T12:40:52.625Z,1.92
2022-08-24T12:43:45.318Z,2.22
2022-08-24T12:46:32.935Z,2.13
2022-08-24T12:49:27.538Z,2.22
2022-08-24T12:52:37.741Z,2.08
2022-08-24T12:55:27.378Z,2.20
2022-08-24T12:58:35.111Z,2.05
2022-08-24T13:01:25.755Z,2.10
2022-08-24T13:04:32.802Z,1.95
2022-08-24T13:07:31.122Z,2.10
2022-08-24T13:10:38.041Z,1.80
2022-08-24T13:13:42.712Z,2.17
2022-08-24T13:16:47.655Z,1.90
2022-08-24T13:19:40.053Z,2.40
2022-08-24T13:22:50.361Z,1.88
2022-08-24T13:25:52.956Z,1.70
2022-08-24T13:28:46.437Z,2.42
2022-08-24T13:31:38.645Z,1.88
2022-08-24T13:34:44.435Z,1.70
2022-08-24T13:37:31.468Z,1.80
2022-08-24T13:40:26.469Z,1.80
2022-08-24T13:43:20.590Z,1.70
2022-08-24T13:46:20.513Z,1.80
2022-08-24T13:49:25.492Z,2.00
2022-08-24T13:52:24.856Z,1.63
2022-08-24T13:55:29.083Z,1.80
2022-08-24T13:58:23.781Z,2.05
2022-08-24T14:01:31.270Z,1.80
2022-08-24T14:04:40.165Z,1.70
2022-08-24T14:07:34.655Z,1.88
2022-08-24T14:10:37.770Z,1.83
2022-08-24T14:13:37.495Z,1.90
2022-08-24T14:16:53.629Z,1.80
2022-08-24T14:19:49.295Z,1.90
2022-08-24T14:22:41.380Z,2.03
2022-08-24T14:25:30.918Z,2.00
2022-08-24T14:28:37.372Z,1.90
2022-08-24T14:31:29.551Z,1.85
2022-08-24T14:34:28.210Z,2.13
2022-08-24T14:37:23.789Z,2.30
2022-08-24T14:40:28.707Z,1.85
2022-08-24T14:43:31.795Z,2.35
2022-08-24T14:46:29.303Z,1.92
2022-08-24T14:49:31.466Z,1.77
2022-08-24T14:52:40.745Z,1.67
2022-08-24T14:55:38.377Z,1.80
2022-08-24T14:58:37.883Z,1.63
2022-08-24T15:01:40.900Z,1.85
2022-08-24T15:04:40.278Z,2.00
2022-08-24T15:07:30.812Z,2.00
2022-08-24T15:10:24.949Z,1.95
2022-08-24T15:13:24.071Z,2.13
2022-08-24T15:16:14.815Z,1.75
2022-08-24T15:19:09.518Z,1.85
2022-08-24T15:22:02.158Z,1.77
2022-08-24T15:24:58.844Z,1.65
2022-08-24T15:27:51.952Z,1.90
2022-08-24T15:30:43.187Z,1.50
2022-08-24T15:33:32.147Z,1.80
2022-08-24T15:36:20.059Z,1.85
2022-08-24T15:39:07.646Z,1.73
2022-08-24T15:41:55.175Z,1.70
2022-08-24T15:44:45.176Z,1.80
2022-08-24T15:47:36.269Z,1.45
2022-08-24T15:50:27.178Z,1.70
2022-08-24T15:53:33.455Z,1.70
2022-08-24T15:56:30.067Z,1.75
2022-08-24T15:59:28.691Z,1.55
2022-08-24T16:02:28.552Z,1.60
2022-08-24T16:05:36.939Z,1.65
2022-08-24T16:08:30.683Z,1.73
2022-08-24T16:11:28.707Z,1.92
2022-08-24T16:14:29.686Z,1.80
2022-08-24T16:17:25.978Z,1.73
2022-08-24T16:20:29.863Z,2.40
2022-08-24T16:23:26.018Z,1.60
2022-08-24T16:26:24.109Z,2.38
2022-08-24T16:29:50.370Z,1.65
2022-08-24T16:32:55.183Z,2.00
2022-08-24T16:35:43.587Z,1.85
2022-08-24T16:38:36.194Z,1.77
2022-08-24T16:41:26.045Z,1.50
2022-08-24T16:44:14.194Z,1.42
2022-08-24T16:47:01.365Z,1.52
2022-08-24T16:49:48.394Z,1.67
2022-08-24T16:52:36.839Z,1.75
2022-08-24T16:55:23.743Z,1.50
2022-08-24T16:58:11.521Z,1.50
2022-08-24T17:00:58.659Z,1.83
2022-08-24T17:03:45.702Z,2.20
2022-08-24T17:06:33.235Z,1.50
2022-08-24T17:09:21.853Z,1.90
2022-08-24T17:12:10.021Z,1.83
2022-08-24T17:14:58.861Z,1.83
2022-08-24T17:17:54.885Z,1.70
2022-08-24T17:20:42.851Z,1.75
2022-08-24T17:23:29.783Z,1.70
2022-08-24T17:26:20.868Z,1.70
2022-08-24T17:29:11.565Z,1.90
2022-08-24T17:32:02.660Z,1.70
2022-08-24T17:34:49.869Z,1.58
2022-08-24T17:37:38.547Z,2.33
2022-08-24T17:40:27.447Z,1.85
2022-08-24T17:43:16.832Z,1.45
2022-08-24T17:46:04.385Z,1.90
2022-08-24T17:48:51.474Z,1.65
2022-08-24T17:51:38.681Z,1.90
2022-08-24T17:54:29.403Z,1.88
2022-08-24T17:57:17.882Z,1.90
2022-08-24T18:00:08.265Z,1.83
2022-08-24T18:02:59.811Z,2.17
2022-08-24T18:05:47.180Z,2.10
2022-08-24T18:08:34.451Z,2.30
2022-08-24T18:11:25.677Z,2.03
2022-08-24T18:14:12.827Z,2.15
2022-08-24T18:17:05.819Z,2.20
2022-08-24T18:19:55.459Z,2.40
2022-08-24T18:22:45.155Z,2.40
2022-08-24T18:25:36.602Z,2.40
2022-08-24T18:28:24.193Z,2.40
2022-08-24T18:31:12.896Z,2.30
2022-08-24T18:34:03.801Z,2.33
2022-08-24T18:36:51.342Z,2.30
2022-08-24T18:39:38.414Z,2.60
2022-08-24T18:42:28.487Z,3.83
2022-08-24T18:45:15.814Z,2.33
2022-08-24T18:48:03.027Z,1.65
2022-08-24T18:50:52.459Z,2.60
2022-08-24T18:53:39.640Z,2.10
2022-08-24T18:56:26.728Z,2.47
2022-08-24T18:59:18.795Z,2.63
2022-08-24T19:02:25.210Z,2.40
2022-08-24T19:05:13.922Z,2.13
2022-08-24T19:08:01.043Z,3.35
2022-08-24T19:10:52.950Z,2.80
2022-08-24T19:13:41.742Z,2.30
2022-08-24T19:16:29.413Z,2.20
2022-08-24T19:19:16.806Z,2.65
2022-08-24T19:22:05.359Z,2.50
2022-08-24T19:24:54.706Z,2.58
2022-08-24T19:27:41.918Z,3.13
2022-08-24T19:30:29.429Z,2.70
2022-08-24T19:33:22.798Z,2.60
2022-08-24T19:36:10.098Z,2.70
2022-08-24T19:38:57.439Z,2.30
2022-08-24T19:41:48.661Z,2.63
2022-08-24T19:44:52.213Z,2.13
2022-08-24T19:47:38.550Z,2.20
2022-08-24T19:50:28.219Z,2.42
2022-08-24T19:53:14.227Z,2.00
2022-08-24T19:56:02.297Z,2.40
2022-08-24T19:59:01.835Z,2.20
2022-08-24T20:01:48.768Z,2.80
2022-08-24T20:04:35.907Z,2.20
2022-08-24T20:07:22.949Z,2.70
2022-08-24T20:10:13.033Z,2.30
2022-08-24T20:13:00.811Z,2.60
2022-08-24T20:15:49.442Z,2.60
2022-08-24T20:18:37.899Z,2.60
2022-08-24T20:21:29.425Z,2.33
2022-08-24T20:24:16.972Z,2.30
2022-08-24T20:27:04.139Z,2.40
2022-08-24T20:29:56.075Z,3.00
2022-08-24T20:32:45.154Z,2.50
2022-08-24T20:35:35.475Z,2.60
2022-08-24T20:38:23.626Z,2.40
2022-08-24T20:41:12.467Z,2.38
2022-08-24T20:44:03.778Z,2.60
2022-08-24T20:46:51.555Z,2.50
2022-08-24T20:49:40.940Z,2.40
2022-08-24T20:52:28.221Z,2.60
2022-08-24T20:55:15.542Z,2.33
2022-08-24T20:58:03.581Z,2.58
2022-08-24T21:00:51.320Z,3.08
2022-08-24T21:03:38.578Z,2.55
2022-08-24T21:06:27.074Z,2.75
2022-08-24T21:09:14.720Z,2.67
2022-08-24T21:12:02.058Z,2.72
2022-08-24T21:14:49.063Z,2.55
2022-08-24T21:17:38.689Z,3.20
2022-08-24T21:20:26.560Z,2.80
2022-08-24T21:23:14.750Z,2.50
2022-08-24T21:26:04.655Z,2.72
2022-08-24T21:28:52.217Z,2.70
2022-08-24T21:31:40.323Z,2.90
2022-08-24T21:34:41.330Z,2.97
2022-08-24T21:37:28.728Z,2.95
2022-08-24T21:40:18.197Z,3.17
2022-08-24T21:43:14.643Z,3.50
2022-08-24T21:46:06.114Z,3.50
2022-08-24T21:48:53.281Z,3.80
2022-08-24T21:51:43.188Z,3.67
2022-08-24T21:54:30.056Z,3.65
2022-08-24T21:57:18.557Z,3.55
2022-08-24T22:00:06.975Z,3.42
2022-08-24T22:02:54.097Z,3.97
2022-08-24T22:05:41.239Z,3.47
2022-08-24T22:08:29.289Z,3.90
2022-08-24T22:11:19.800Z,4.03
2022-08-24T22:14:07.807Z,4.00
2022-08-24T22:16:55.500Z,4.10
2022-08-24T22:19:42.831Z,4.03
2022-08-24T22:22:29.872Z,4.03
2022-08-24T22:25:16.784Z,4.10
2022-08-24T22:28:05.011Z,4.55
2022-08-24T22:30:53.524Z,4.30
2022-08-24T22:33:40.693Z,4.97
2022-08-24T22:36:29.294Z,4.07
2022-08-24T22:39:16.643Z,4.50
2022-08-24T22:42:04.616Z,4.80
2022-08-24T22:44:51.769Z,4.53
2022-08-24T22:47:40.108Z,4.70
2022-08-24T22:50:27.269Z,4.88
2022-08-24T22:53:14.302Z,4.28
2022-08-24T22:56:01.498Z,4.70
2022-08-24T22:58:49.668Z,4.85
2022-08-24T23:01:40.425Z,4.80
2022-08-24T23:04:32.138Z,4.18
2022-08-24T23:07:20.111Z,5.30
2022-08-24T23:10:12.313Z,4.15
2022-08-24T23:13:00.413Z,5.05
2022-08-24T23:15:48.453Z,5.15
2022-08-24T23:18:51.328Z,4.68
2022-08-24T23:21:38.518Z,5.87
2022-08-24T23:24:24.408Z,4.80
2022-08-24T23:27:11.896Z,4.68
2022-08-24T23:29:58.983Z,4.70
2022-08-24T23:32:46.261Z,5.10
2022-08-24T23:35:33.028Z,4.97
2022-08-24T23:38:21.401Z,5.10
2022-08-24T23:41:09.270Z,4.97
2022-08-24T23:43:57.585Z,5.20
2022-08-24T23:46:46.253Z,6.90
2022-08-24T23:49:33.723Z,6.13
2022-08-24T23:52:26.683Z,5.65
2022-08-24T23:55:20.846Z,5.50
2022-08-24T23:58:09.445Z,5.63
